Latest Weather Observations for Parawa West

IDS60901

Issued at 4:45 pm CST Thursday 31 July 2014 (issued every 10 minutes, with the page automatically refreshed every 10 minutes)

About weather observations | Map of Adelaide area stations | Latest observations for Adelaide area | Other Formats
Station Details ID: 023875 Name: SECOND VALLEY FOREST AWS Lat: -35.57 Lon: 138.29 Height: 341.0 m
Data from the previous 72 hours. | See also: Recent months at Parawa West
Date/Time
CST
Tmp

°C
App
Tmp
°C
Dew
Point
°C
Rel
Hum
%
Delta-T

°C
Wind Press
QNH
hPa
Press
MSL
hPa
Rain
since
9 am
mm
Dir
 
Spd
km/h
Gust
km/h
Spd
kts
Gust
kts
31/04:30pm 6.2 -1.2 4.0 86 1.0 W 32 50 17 27 1005.2 1005.4 7.4
31/04:00pm 6.3 -0.5 5.1 92 0.5 WSW 30 50 16 27 1004.6 - 7.4
31/03:44pm 7.0 0.2 5.3 89 0.8 W 30 50 16 27 1004.2 - 6.8
31/03:30pm 6.9 0.2 5.5 91 0.6 W 30 44 16 24 1003.8 1004.0 6.6
31/03:06pm 7.5 1.3 6.0 90 0.7 W 28 46 15 25 1003.3 - 6.6
31/03:00pm 7.6 1.1 6.4 92 0.6 W 30 44 16 24 1003.3 1003.5 6.6
31/02:30pm 7.4 1.7 6.7 95 0.3 W 26 39 14 21 1003.1 1003.3 6.6
31/02:00pm 7.2 0.1 6.6 96 0.3 W 33 70 18 38 1002.7 - 6.4
31/01:55pm 8.5 2.3 7.7 95 0.4 WNW 30 70 16 38 1002.5 - 5.8
31/01:30pm 8.2 3.0 7.1 93 0.5 WNW 24 35 13 19 1002.1 1002.3 5.4
31/01:00pm 7.8 1.5 7.2 96 0.3 W 30 54 16 29 1002.5 - 5.2
31/12:30pm 7.8 1.9 7.4 97 0.2 W 28 46 15 25 1003.1 1003.3 5.0
31/12:21pm 7.9 2.0 7.5 97 0.2 W 28 57 15 31 1003.1 - 4.6
31/12:00pm 8.1 1.9 7.7 97 0.2 W 30 43 16 23 1002.9 1003.1 3.6
31/11:50am 8.3 2.4 7.7 96 0.3 W 28 46 15 25 1002.8 - 3.4
31/11:30am 8.3 2.4 7.7 96 0.3 W 28 44 15 24 1003.0 1003.2 2.8
31/11:07am 8.5 2.7 7.9 96 0.3 W 28 46 15 25 1002.6 - 2.6
31/11:00am 8.7 3.4 8.3 97 0.2 W 26 39 14 21 1002.7 - 2.6
31/10:46am 9.2 3.2 8.7 97 0.2 WSW 30 48 16 26 1002.6 - 2.0
31/10:42am 9.8 1.0 9.5 98 0.2 WNW 46 59 25 32 1002.1 - 1.8
31/10:30am 11.1 4.6 10.3 95 0.4 NNW 35 57 19 31 1001.4 1001.7 0.0
31/10:00am 11.1 4.9 10.2 94 0.5 NNW 33 61 18 33 1001.6 - 0.0
31/09:30am 10.8 5.2 10.2 96 0.3 NNW 30 54 16 29 1001.7 1002.0 0.0
31/09:00am 10.8 5.6 10.2 96 0.3 NW 28 54 15 29 1002.0 1002.2 0.0
31/08:30am 10.9 4.3 10.1 95 0.4 NNW 35 61 19 33 1002.5 1002.7 0.0
31/08:00am 11.0 4.4 10.1 94 0.5 NNW 35 56 19 30 1002.7 - 0.0
31/07:30am 10.9 4.2 9.8 93 0.6 NNW 35 65 19 35 1002.9 1003.1 0.0
31/07:00am 11.1 4.5 9.9 92 0.6 NNW 35 56 19 30 1002.9 - 0.0
31/06:30am 11.0 4.3 9.8 92 0.6 NNW 35 57 19 31 1003.0 1003.2 0.0
31/06:00am 11.3 3.8 9.6 89 0.9 NNW 39 61 21 33 1003.4 1003.6 0.0
31/05:30am 11.0 3.5 9.6 91 0.7 NNW 39 63 21 34 1003.5 1003.7 0.0
31/05:02am 10.9 4.2 9.5 91 0.7 NNW 35 54 19 29 1003.8 - 0.0
31/05:00am 10.9 4.2 9.5 91 0.7 NNW 35 54 19 29 1003.9 - 0.0
31/04:30am 11.0 3.9 9.4 90 0.8 NNW 37 63 20 34 1004.2 1004.5 0.0
31/04:01am 10.8 4.5 9.6 92 0.6 NNW 33 54 18 29 1004.6 - 0.0
31/04:00am 10.7 4.5 9.5 92 0.6 NNW 32 50 17 27 1004.7 - 0.0
31/03:30am 10.5 5.0 9.3 92 0.6 NNW 28 44 15 24 1005.3 1005.5 0.0
31/03:00am 10.4 5.7 9.2 92 0.6 NW 24 39 13 21 1005.5 1005.7 0.0
31/02:30am 10.6 5.0 8.9 89 0.9 NNW 28 44 15 24 1006.0 1006.2 0.0
31/02:00am 10.5 4.9 8.9 90 0.8 NW 28 46 15 25 1006.3 - 0.0
31/01:54am 10.6 5.1 9.0 90 0.8 NNW 28 46 15 25 1006.3 - 0.0
31/01:30am 10.6 5.1 9.2 91 0.7 NNW 28 44 15 24 1006.6 1006.9 0.0
31/01:00am 10.9 5.1 9.3 90 0.8 NW 30 46 16 25 1007.2 - 0.0
31/12:30am 11.1 4.7 9.2 88 1.0 NNW 33 56 18 30 1007.6 1007.9 0.0
31/12:00am 11.6 4.4 9.2 85 1.2 NNW 37 56 20 30 1008.2 1008.4 0.0
 
Date/Time
CST
Tmp

°C
App
Tmp
°C
Dew
Point
°C
Rel
Hum
%
Delta-T

°C
Wind Press
QNH
hPa
Press
MSL
hPa
Rain
since
9 am
mm
Dir
 
Spd
km/h
Gust
km/h
Spd
kts
Gust
kts
30/11:30pm 11.9 5.1 9.3 84 1.3 NNW 35 57 19 31 1008.7 1008.9 0.0
30/11:00pm 12.1 5.3 9.1 82 1.5 NW 35 56 19 30 1009.2 - 0.0
30/10:30pm 12.2 5.4 9.4 83 1.4 NW 35 56 19 30 1009.6 1009.9 0.0
30/10:07pm 12.3 5.6 9.5 83 1.4 NW 35 54 19 29 1009.9 - 0.0
30/10:00pm 12.3 5.2 9.7 84 1.3 NNW 37 54 20 29 1009.9 - 0.0
30/09:30pm 12.2 5.2 9.8 85 1.2 NNW 37 59 20 32 1010.0 1010.3 0.0
30/09:00pm 12.1 5.9 10.2 88 1.0 NNW 33 54 18 29 1010.4 1010.7 0.0
30/08:30pm 12.2 5.7 10.4 89 0.9 NNW 35 54 19 29 1011.1 1011.3 0.0
30/08:00pm 12.1 6.3 10.7 91 0.7 NNW 32 52 17 28 1011.5 - 0.0
30/07:30pm 12.0 6.0 10.9 93 0.6 NNW 33 52 18 28 1011.7 1012.0 0.0
30/07:09pm 11.9 6.2 11.1 95 0.4 NNW 32 50 17 27 1011.8 - 0.0
30/07:00pm 11.7 6.4 11.2 97 0.3 NNW 30 48 16 26 1011.9 - 0.0
30/06:30pm 11.8 6.1 11.3 97 0.3 NNW 32 52 17 28 1011.8 1012.1 0.0
30/06:00pm 11.9 6.3 11.4 97 0.3 NNW 32 54 17 29 1011.8 1012.1 0.0
30/05:30pm 12.0 6.5 11.7 98 0.2 NNW 32 54 17 29 1011.8 1012.1 0.0
30/05:02pm 12.1 7.0 11.8 98 0.2 NNW 30 50 16 27 1011.8 - 0.0
30/05:00pm 12.1 6.6 11.8 98 0.2 NNW 32 48 17 26 1011.8 - 0.0
30/04:30pm 12.3 7.2 12.0 98 0.2 NNW 30 48 16 26 1011.9 1012.2 0.0
30/04:00pm 12.4 6.9 11.9 97 0.3 NNW 32 57 17 31 1012.1 - 0.0
30/03:30pm 12.3 6.2 11.8 97 0.3 NNW 35 56 19 30 1012.3 1012.6 0.0
30/03:02pm 12.4 7.3 11.9 97 0.3 NNW 30 48 16 26 1012.5 - 0.0
30/03:00pm 12.4 7.4 12.1 98 0.2 NNW 30 46 16 25 1012.5 1012.8 0.0
30/02:30pm 12.6 7.8 11.7 94 0.5 NW 28 41 15 22 1012.9 1013.2 0.0
30/02:05pm 13.6 8.8 11.8 89 1.0 NW 28 48 15 26 1013.0 - 0.0
30/02:00pm 13.6 8.1 11.7 88 1.0 NW 32 48 17 26 1013.0 - 0.0
30/01:54pm 13.5 8.6 11.4 87 1.1 NW 28 46 15 25 1013.1 - 0.0
30/01:30pm 13.6 9.2 11.7 88 1.0 NW 26 43 14 23 1013.4 1013.7 0.0
30/01:00pm 12.6 7.2 10.8 89 1.0 NW 30 46 16 25 1013.9 - 0.0
30/12:30pm 12.8 7.9 12.6 99 0.1 NW 30 44 16 24 1014.5 1014.8 0.0
30/12:00pm 12.0 6.9 12.0 100 0.0 NW 30 52 16 28 1015.0 1015.3 0.0
30/11:31am 11.9 6.8 11.9 100 0.0 NW 30 48 16 26 1015.3 - 0.0
30/11:30am 11.9 6.8 11.9 100 0.0 NW 30 46 16 25 1015.3 1015.6 0.0
30/11:06am 11.8 7.0 11.8 100 0.0 NW 28 50 15 27 1015.5 - 0.0
30/11:00am 11.9 7.2 11.9 100 0.0 NW 28 44 15 24 1015.6 - 0.0
30/10:46am 11.8 7.0 11.8 100 0.0 NW 28 48 15 26 1015.8 - 0.0
30/10:30am 11.8 7.0 11.8 100 0.0 NW 28 46 15 25 1015.8 1016.1 0.0
30/10:00am 11.6 6.8 11.6 100 0.0 NNW 28 44 15 24 1015.8 - 0.0
30/09:30am 11.7 7.3 11.7 100 0.0 NW 26 41 14 22 1016.0 1016.3 0.0
30/09:00am 11.5 6.7 11.5 100 0.0 NW 28 44 15 24 1016.2 1016.6 4.0
30/08:52am 11.6 6.8 11.6 100 0.0 NNW 28 48 15 26 1016.0 - 4.0
30/08:30am 11.5 8.2 11.5 100 0.0 NW 20 30 11 16 1016.1 1016.4 4.0
30/08:00am 11.4 8.0 11.4 100 0.0 NW 20 35 11 19 1016.1 - 4.0
30/07:30am 11.4 7.3 11.4 100 0.0 NW 24 35 13 19 1016.1 1016.4 3.8
30/07:00am 11.3 7.2 11.3 100 0.0 NW 24 44 13 24 1016.0 - 3.8
30/06:30am 11.3 7.2 11.3 100 0.0 NW 24 44 13 24 1015.8 1016.1 3.8
30/06:00am 11.3 6.8 11.3 100 0.0 NW 26 44 14 24 1015.6 1015.9 3.8
30/05:30am 11.3 7.2 11.3 100 0.0 NNW 24 35 13 19 1015.3 1015.6 3.8
30/05:00am 11.3 6.8 11.3 100 0.0 NW 26 39 14 21 1015.1 - 3.8
30/04:30am 11.3 6.8 11.3 100 0.0 NNW 26 43 14 23 1015.1 1015.4 3.8
30/04:00am 11.2 7.4 11.2 100 0.0 NW 22 39 12 21 1015.3 - 3.6
30/03:30am 11.4 7.3 11.4 100 0.0 NW 24 35 13 19 1015.6 1015.9 3.6
30/03:00am 11.4 8.0 11.4 100 0.0 NW 20 33 11 18 1015.8 1016.1 3.6
30/02:30am 11.6 7.5 11.6 100 0.0 NW 24 35 13 19 1015.9 1016.2 3.6
30/02:00am 11.4 7.3 11.4 100 0.0 NW 24 41 13 22 1016.1 - 3.6
30/01:30am 11.7 7.7 11.7 100 0.0 NW 24 37 13 20 1016.3 1016.7 3.6
30/01:00am 11.7 8.4 11.7 100 0.0 NW 20 35 11 19 1016.1 - 3.6
30/12:30am 11.7 8.4 11.7 100 0.0 NW 20 35 11 19 1016.3 1016.7 3.6
30/12:00am 11.6 7.2 11.6 100 0.0 WNW 26 39 14 21 1016.5 1016.9 3.6
 
Date/Time
CST
Tmp

°C
App
Tmp
°C
Dew
Point
°C
Rel
Hum
%
Delta-T

°C
Wind Press
QNH
hPa
Press
MSL
hPa
Rain
since
9 am
mm
Dir
 
Spd
km/h
Gust
km/h
Spd
kts
Gust
kts
29/11:30pm 11.8 7.0 11.6 99 0.1 WNW 28 44 15 24 1016.4 1016.8 3.4
29/11:00pm 12.0 7.6 11.8 99 0.1 NW 26 39 14 21 1016.6 - 3.4
29/10:30pm 11.8 7.8 11.8 100 0.0 WNW 24 35 13 19 1016.7 1017.1 3.4
29/10:00pm 11.8 7.7 11.6 99 0.1 WNW 24 37 13 20 1016.7 - 3.4
29/09:30pm 11.9 8.7 11.9 100 0.0 NW 20 32 11 17 1016.3 1016.7 3.4
29/09:00pm 12.0 8.8 12.0 100 0.0 NW 20 35 11 19 1016.3 1016.7 3.4
29/08:30pm 12.0 8.1 12.0 100 0.0 WNW 24 44 13 24 1016.1 1016.4 3.4
29/08:09pm 12.0 7.2 11.8 99 0.1 WNW 28 46 15 25 1016.0 - 3.4
29/08:00pm 11.9 7.5 11.6 98 0.2 W 26 48 14 26 1015.8 - 3.2
29/07:30pm 11.8 7.2 11.2 96 0.3 WNW 26 48 14 26 1015.6 1015.9 2.6
29/07:00pm 12.0 7.7 12.0 100 0.0 NW 26 43 14 23 1015.3 - 2.4
29/06:37pm 11.9 6.8 11.9 100 0.0 WNW 30 50 16 27 1015.1 - 2.4
29/06:30pm 11.9 6.8 11.9 100 0.0 NW 30 43 16 23 1015.1 1015.4 2.4
29/06:00pm 11.8 6.3 11.8 100 0.0 WNW 32 46 17 25 1014.7 1015.0 2.4
29/05:38pm 12.1 6.7 12.1 100 0.0 WNW 32 57 17 31 1014.5 - 2.4
29/05:30pm 12.1 7.1 12.1 100 0.0 WNW 30 46 16 25 1014.5 1014.8 2.4
29/05:00pm 12.4 7.4 12.1 98 0.2 WNW 30 48 16 26 1014.0 - 2.4
29/04:46pm 12.5 7.1 12.2 98 0.2 WNW 32 57 17 31 1013.9 - 2.4
29/04:30pm 12.7 7.1 12.1 96 0.3 WNW 33 46 18 25 1013.9 1014.3 2.4
29/04:00pm 12.4 7.0 12.1 98 0.2 WNW 32 57 17 31 1013.6 - 2.0
29/03:43pm 12.5 6.1 11.9 96 0.3 WNW 37 57 20 31 1013.4 - 1.8
29/03:30pm 12.6 6.2 12.1 97 0.3 WNW 37 54 20 29 1013.4 1013.7 1.8
29/03:00pm 12.6 6.6 12.1 97 0.3 NW 35 56 19 30 1013.2 1013.5 1.6
29/02:30pm 12.8 6.3 11.7 93 0.6 NW 37 56 20 30 1013.2 1013.5 1.6
29/02:13pm 12.7 7.0 11.8 94 0.5 NW 33 57 18 31 1013.2 - 1.6
29/02:00pm 12.6 7.1 11.8 95 0.4 NW 32 50 17 27 1013.2 - 1.6
29/01:30pm 12.8 6.6 11.5 92 0.7 NW 35 57 19 31 1013.2 1013.5 1.6
29/01:00pm 11.7 6.5 11.7 100 0.0 NW 30 50 16 27 1013.1 - 1.6
29/12:40pm 11.8 7.0 11.8 100 0.0 NW 28 46 15 25 1013.3 - 1.6
29/12:30pm 11.8 7.0 11.8 100 0.0 NW 28 44 15 24 1013.4 1013.7 1.6
29/12:08pm 11.8 6.3 11.8 100 0.0 NW 32 52 17 28 1013.5 - 1.6
29/12:00pm 11.7 6.5 11.7 100 0.0 NW 30 44 16 24 1013.5 1013.8 1.6
29/11:30am 11.6 6.4 11.6 100 0.0 NW 30 48 16 26 1013.6 1013.9 1.6
29/11:00am 11.5 5.9 11.5 100 0.0 NW 32 56 17 30 1013.9 - 1.6
29/10:30am 11.3 5.1 11.3 100 0.0 NW 35 56 19 30 1013.7 1014.1 1.6
29/10:00am 11.3 5.4 11.3 100 0.0 NW 33 57 18 31 1013.3 - 0.8
29/09:30am 11.2 5.9 11.2 100 0.0 NW 30 48 16 26 1013.1 1013.4 0.6
29/09:00am 11.1 5.8 11.1 100 0.0 NW 30 50 16 27 1013.2 1013.5 2.0
29/08:30am 11.0 5.1 11.0 100 0.0 NW 33 57 18 31 1013.2 1013.5 1.4
29/08:04am 10.9 5.9 10.9 100 0.0 NW 28 48 15 26 1013.0 - 0.4
29/08:00am 10.9 5.5 10.9 100 0.0 NW 30 46 16 25 1013.0 - 0.4
29/07:30am 10.9 5.5 10.9 100 0.0 NW 30 54 16 29 1012.9 1013.2 0.4
29/07:02am 10.9 4.9 10.9 100 0.0 NW 33 52 18 28 1012.8 - 0.2
29/07:00am 10.9 5.1 10.9 100 0.0 NW 32 50 17 27 1012.8 - 0.2
29/06:51am 10.8 5.4 10.8 100 0.0 NW 30 50 16 27 1012.5 - 0.0
29/06:30am 10.8 5.0 10.8 100 0.0 NW 32 46 17 25 1012.3 1012.6 0.0
29/06:00am 10.8 5.3 10.6 99 0.1 NW 30 50 16 27 1012.5 1012.8 0.0
29/05:33am 10.8 5.3 10.6 99 0.1 NW 30 50 16 27 1012.0 - 0.0
29/05:30am 10.8 4.9 10.6 99 0.1 NW 32 50 17 27 1012.0 1012.3 0.0
29/05:00am 10.8 5.3 10.5 98 0.2 NW 30 59 16 32 1012.6 - 0.0
29/04:30am 10.8 5.6 10.3 97 0.3 NW 28 48 15 26 1012.8 1013.1 0.0
29/04:16am 10.8 5.6 10.2 96 0.3 NNW 28 48 15 26 1012.5 - 0.0
29/04:00am 10.8 5.2 10.0 95 0.4 NNW 30 46 16 25 1012.5 - 0.0
29/03:30am 10.9 5.3 10.0 94 0.5 NNW 30 46 16 25 1012.4 1012.7 0.0
29/03:00am 10.9 4.8 9.8 93 0.6 NNW 32 52 17 28 1012.5 1012.8 0.0
29/02:32am 10.9 4.8 9.7 92 0.6 NNW 32 56 17 30 1012.5 - 0.0
29/02:30am 10.9 4.8 9.7 92 0.6 NNW 32 46 17 25 1012.4 1012.7 0.0
29/02:00am 11.0 4.7 9.6 91 0.7 NNW 33 52 18 28 1012.7 - 0.0
29/01:30am 10.9 5.0 9.2 89 0.9 NW 30 52 16 28 1013.1 1013.4 0.0
29/01:00am 10.9 4.7 9.2 89 0.9 NNW 32 46 17 25 1013.3 - 0.0
29/12:37am 10.7 4.4 9.0 89 0.9 NW 32 50 17 27 1013.5 - 0.0
29/12:30am 10.7 4.2 9.1 90 0.8 NW 33 50 18 27 1013.4 1013.7 0.0
29/12:09am 10.7 4.4 9.0 89 0.9 NW 32 52 17 28 1013.3 - 0.0
29/12:00am 10.8 4.5 8.9 88 1.0 NW 32 50 17 27 1013.5 1013.8 0.0
 
Date/Time
CST
Tmp

°C
App
Tmp
°C
Dew
Point
°C
Rel
Hum
%
Delta-T

°C
Wind Press
QNH
hPa
Press
MSL
hPa
Rain
since
9 am
mm
Dir
 
Spd
km/h
Gust
km/h
Spd
kts
Gust
kts
28/11:30pm 10.7 3.8 8.8 88 1.0 NW 35 54 19 29 1013.6 1013.9 0.0
28/11:00pm 10.8 4.8 8.6 86 1.1 NW 30 50 16 27 1013.9 - 0.0
28/10:45pm 10.8 4.8 8.7 87 1.1 NW 30 48 16 26 1013.9 - 0.0
28/10:30pm 10.7 4.8 9.0 89 0.9 NNW 30 46 16 25 1014.3 1014.6 0.0
28/10:29pm 10.7 5.2 9.0 89 0.9 NNW 28 46 15 25 1014.3 - 0.0
28/10:00pm 10.7 5.7 9.5 92 0.6 NNW 26 41 14 22 1014.3 - 0.0
28/09:30pm 11.0 5.1 9.1 88 1.0 NW 30 43 16 23 1014.4 1014.7 0.0
28/09:00pm 11.1 5.2 9.2 88 1.0 NW 30 46 16 25 1014.3 1014.6 0.0
28/08:30pm 11.1 5.3 9.4 89 0.9 NW 30 46 16 25 1014.3 1014.6 0.0
28/08:15pm 11.1 5.2 9.2 88 1.0 NW 30 48 16 26 1014.3 - 0.0
28/08:00pm 11.2 5.4 9.3 88 1.0 NW 30 44 16 24 1014.2 - 0.0
28/07:30pm 11.1 6.1 9.5 90 0.8 NNW 26 41 14 22 1014.0 1014.4 0.0
28/07:00pm 11.2 6.2 9.6 90 0.8 NW 26 43 14 23 1014.0 - 0.0
28/06:30pm 11.0 6.5 9.9 93 0.6 NW 24 37 13 20 1014.0 1014.4 0.0
28/06:00pm 11.1 6.3 10.3 95 0.4 NNW 26 41 14 22 1013.7 1014.1 0.0
28/05:30pm 11.2 6.5 10.6 96 0.3 NW 26 41 14 22 1013.6 1013.9 0.0
28/05:14pm 11.4 6.3 10.6 95 0.4 NNW 28 48 15 26 1013.6 - 0.0
28/05:00pm 11.6 6.9 10.8 95 0.4 NNW 26 44 14 24 1013.7 - 0.0

Latest Capital City Observations: Canberra | Sydney | Melbourne | Brisbane | Adelaide | Perth | Hobart | Darwin

Other Formats:

Comma delimited format used in spreadsheet applications
http://www.bom.gov.au/fwo/IDS60901/IDS60901.94811.axf

JavaScript Object Notation format (JSON) in row-major order
http://www.bom.gov.au/fwo/IDS60901/IDS60901.94811.json